Aviation Digital Data Service (ADDS)

Output produced by METARs form (1254 UTC 29 August 2016)
found at http://aviationweather.gov/adds/metars/
 
KJAX 291125Z 2912/3012 04004KT P6SM SCT020 
     FM291400 06008KT P6SM SCT020 
     FM291600 07012G18KT P6SM VCSH SCT020 BKN035 
     FM300100 06004KT P6SM SCT020 SCT250